Time;durP1;ratioP1;P1;durP2;ratioP2;P2;SDS_P1;SDS_P2;PMS_P1;PMS_P2;Temp;Humidity;BMP_temperature;BMP_pressure;BME280_temperature;BME280_humidity;BME280_pressure;Samples;Min_cycle;Max_cycle;Signal;HPM_P1;HPM_P2
2022/02/25 00:00:17;;;;;;;291.70;277.60;;;;;;;6.98;54.50;100512.50;673129;29;22397;-69
2022/02/25 00:00:38;;;;;;;320.40;305.00;;;;;;;6.98;54.64;100513.34;672337;29;44538;-67
2022/02/25 00:01:00;;;;;;;337.80;321.55;;;;;;;7.02;54.54;100513.84;673802;29;22376;-66
2022/02/25 00:01:21;;;;;;;337.88;321.13;;;;;;;7.00;54.66;100516.69;673258;29;45258;-66
2022/02/25 00:01:43;;;;;;;388.85;369.60;;;;;;;6.97;54.63;100519.69;675020;29;23315;-69
2022/02/25 00:02:04;;;;;;;640.13;605.25;;;;;;;6.96;54.66;100531.47;674967;29;23439;-69
2022/02/25 00:02:25;;;;;;;1049.68;986.65;;;;;;;6.93;54.79;100510.31;674965;29;22397;-69
2022/02/25 00:02:47;;;;;;;1063.45;999.55;;;;;;;6.94;54.56;100513.81;674352;29;47006;-68
2022/02/25 00:03:09;;;;;;;1064.78;999.90;;;;;;;6.94;54.61;100519.19;674009;29;45335;-69
2022/02/25 00:03:30;;;;;;;1061.03;997.15;;;;;;;6.96;54.85;100533.28;674825;29;21512;-69
2022/02/25 00:03:51;;;;;;;1058.88;995.63;;;;;;;6.99;54.48;100519.53;675055;29;21223;-69
2022/02/25 00:04:13;;;;;;;1063.80;999.85;;;;;;;6.99;54.24;100541.03;673308;29;21838;-68
2022/02/25 00:04:34;;;;;;;1068.82;999.90;;;;;;;6.98;54.35;100518.72;672705;29;46288;-69
2022/02/25 00:04:55;;;;;;;1073.07;999.90;;;;;;;6.98;54.45;100512.50;672467;29;45137;-69
2022/02/25 00:05:16;;;;;;;1061.65;997.95;;;;;;;7.02;54.20;100527.28;673460;29;23239;-67
2022/02/25 00:05:38;;;;;;;1054.50;991.55;;;;;;;7.01;54.38;100544.41;673419;29;22407;-69
2022/02/25 00:06:00;;;;;;;1066.43;999.90;;;;;;;7.07;53.92;100551.84;671955;29;44398;-68
2022/02/25 00:06:21;;;;;;;1058.55;994.78;;;;;;;7.13;53.44;100524.34;673685;29;20819;-66
2022/02/25 00:06:42;;;;;;;1058.10;994.83;;;;;;;7.13;53.19;100527.03;673905;29;21560;-69
2022/02/25 00:07:05;;;;;;;1061.13;997.13;;;;;;;7.08;53.21;100517.75;674053;29;47119;-69
2022/02/25 00:07:26;;;;;;;1063.07;998.85;;;;;;;7.06;53.47;100527.81;673641;29;69242;-69
2022/02/25 00:07:47;;;;;;;1062.63;998.60;;;;;;;7.05;53.70;100526.97;675181;29;21232;-69
2022/02/25 00:08:08;;;;;;;1066.80;999.90;;;;;;;7.05;53.91;100543.06;674716;29;45340;-69
2022/02/25 00:08:32;;;;;;;1067.25;999.90;;;;;;;7.10;53.47;100513.06;674754;29;22187;-68
2022/02/25 00:08:53;;;;;;;1074.00;999.90;;;;;;;7.10;53.09;100535.41;672731;29;90752;-68
2022/02/25 00:09:14;;;;;;;1073.38;999.90;;;;;;;7.06;53.10;100536.72;675240;29;21468;-68
2022/02/25 00:09:35;;;;;;;1076.20;999.90;;;;;;;7.04;53.20;100534.19;672376;29;22527;-68
2022/02/25 00:09:59;;;;;;;1066.43;999.90;;;;;;;7.07;53.22;100534.84;672284;29;22354;-68
2022/02/25 00:10:20;;;;;;;1062.68;998.20;;;;;;;7.06;53.41;100528.66;670853;29;70040;-68
2022/02/25 00:10:41;;;;;;;1060.55;996.30;;;;;;;7.08;53.39;100536.56;672104;29;23472;-67
2022/02/25 00:11:02;;;;;;;1064.18;999.58;;;;;;;7.05;53.42;100537.72;672326;29;23292;-68
2022/02/25 00:11:24;;;;;;;1064.93;999.88;;;;;;;7.03;53.37;100542.41;671506;29;47392;-66
2022/02/25 00:11:46;;;;;;;1066.93;999.90;;;;;;;7.04;53.52;100531.50;673817;29;45301;-69
2022/02/25 00:12:08;;;;;;;1067.82;999.90;;;;;;;7.08;53.62;100545.44;675091;29;22480;-69
2022/02/25 00:12:29;;;;;;;1070.68;999.90;;;;;;;7.11;53.68;100541.59;674070;29;46324;-68
2022/02/25 00:12:51;;;;;;;1070.70;999.90;;;;;;;7.11;53.57;100545.13;675098;29;21545;-69
2022/02/25 00:13:12;;;;;;;1069.82;999.90;;;;;;;7.09;53.56;100541.78;674299;29;46809;-68
2022/02/25 00:13:33;;;;;;;1067.85;999.90;;;;;;;7.05;53.49;100548.44;675340;29;22372;-69
2022/02/25 00:13:55;;;;;;;1071.15;999.90;;;;;;;7.05;53.68;100545.75;675236;29;21534;-68
2022/02/25 00:14:17;;;;;;;1074.55;999.90;;;;;;;7.02;53.67;100555.00;673403;29;69312;-66
2022/02/25 00:14:39;;;;;;;1076.45;999.90;;;;;;;7.01;53.81;100555.97;674199;29;45204;-69
2022/02/25 00:15:00;;;;;;;1074.13;999.90;;;;;;;7.05;53.57;100564.56;675270;29;23429;-67
2022/02/25 00:15:21;;;;;;;1071.22;999.90;;;;;;;7.05;53.50;100551.13;674784;29;22386;-68
2022/02/25 00:15:43;;;;;;;1067.30;999.90;;;;;;;7.01;53.65;100555.97;675047;29;22483;-69
2022/02/25 00:16:05;;;;;;;1073.57;999.90;;;;;;;7.02;53.68;100565.75;673212;29;67562;-70
2022/02/25 00:16:26;;;;;;;970.95;913.53;;;;;;;7.00;53.88;100558.84;673060;29;44311;-68
2022/02/25 00:16:49;;;;;;;878.58;827.63;;;;;;;6.99;53.72;100554.44;675422;29;22393;-69
2022/02/25 00:17:10;;;;;;;853.13;803.65;;;;;;;6.96;53.97;100569.06;673453;29;69421;-68
2022/02/25 00:17:32;;;;;;;858.80;809.00;;;;;;;6.95;53.86;100563.84;674921;29;21549;-69
2022/02/25 00:17:53;;;;;;;853.95;804.50;;;;;;;6.94;54.06;100567.50;673628;29;45205;-68
2022/02/25 00:18:14;;;;;;;851.30;802.05;;;;;;;6.95;53.99;100569.22;675153;29;23807;-69
2022/02/25 00:18:36;;;;;;;866.08;815.88;;;;;;;6.95;53.98;100567.34;674705;29;21644;-68
2022/02/25 00:18:58;;;;;;;819.45;772.10;;;;;;;6.97;53.79;100580.63;674156;29;46327;-69
2022/02/25 00:19:19;;;;;;;806.55;760.03;;;;;;;6.98;53.92;100564.34;673830;29;46362;-68
2022/02/25 00:19:40;;;;;;;842.08;793.42;;;;;;;7.00;53.86;100566.88;674874;29;22401;-68
2022/02/25 00:20:01;;;;;;;971.60;914.95;;;;;;;7.01;53.84;100576.63;675188;29;23273;-69
2022/02/25 00:20:23;;;;;;;987.45;929.78;;;;;;;7.03;53.82;100574.63;674379;29;46124;-69
2022/02/25 00:20:45;;;;;;;1030.07;968.72;;;;;;;7.03;53.60;100580.81;674303;29;46318;-69
2022/02/25 00:21:06;;;;;;;1071.60;999.90;;;;;;;7.02;53.48;100584.53;674818;29;21519;-68
2022/02/25 00:21:27;;;;;;;1076.03;999.90;;;;;;;7.01;53.39;100585.53;674320;29;22371;-68
2022/02/25 00:21:50;;;;;;;1075.55;999.90;;;;;;;7.00;53.39;100577.63;674577;29;22410;-69
2022/02/25 00:22:11;;;;;;;1070.10;999.90;;;;;;;6.95;53.57;100578.09;673014;29;69416;-68
2022/02/25 00:22:32;;;;;;;1070.40;999.90;;;;;;;6.97;53.49;100583.31;672519;29;21362;-69
2022/02/25 00:22:53;;;;;;;1072.03;999.90;;;;;;;6.97;53.45;100588.69;672240;29;22414;-68
2022/02/25 00:23:16;;;;;;;955.45;897.65;;;;;;;6.97;53.46;100583.31;671203;29;43734;-69
2022/02/25 00:23:37;;;;;;;861.20;811.50;;;;;;;6.95;53.20;100588.00;669388;29;26093;-69
2022/02/25 00:23:58;;;;;;;933.95;879.05;;;;;;;6.94;53.19;100594.38;670220;29;22378;-68
2022/02/25 00:24:19;;;;;;;1046.07;981.72;;;;;;;6.89;53.40;100577.91;670095;29;23442;-69
2022/02/25 00:24:41;;;;;;;1006.85;946.28;;;;;;;6.91;53.64;100587.50;673350;29;22368;-68
2022/02/25 00:25:02;;;;;;;993.42;934.05;;;;;;;6.92;53.66;100583.78;672502;29;44397;-68
2022/02/25 00:25:24;;;;;;;1038.97;975.95;;;;;;;6.87;53.46;100580.72;673039;29;46341;-69
2022/02/25 00:25:46;;;;;;;1023.53;962.42;;;;;;;6.89;53.65;100588.63;675515;29;22395;-69
2022/02/25 00:26:07;;;;;;;993.15;934.50;;;;;;;6.89;53.84;100594.00;673619;29;44180;-69
2022/02/25 00:26:28;;;;;;;1013.63;953.35;;;;;;;6.88;53.83;100589.63;674187;29;22130;-68
2022/02/25 00:26:49;;;;;;;989.70;930.75;;;;;;;6.87;54.06;100583.41;675021;29;21532;-69
2022/02/25 00:27:12;;;;;;;965.90;909.03;;;;;;;6.89;54.03;100580.56;674412;29;44411;-69
2022/02/25 00:27:35;;;;;;;1028.93;967.65;;;;;;;6.92;53.98;100594.53;673539;29;67381;-69
2022/02/25 00:27:57;;;;;;;1032.80;971.03;;;;;;;6.97;53.93;100584.13;673281;29;68342;-68
2022/02/25 00:28:19;;;;;;;1014.80;954.50;;;;;;;7.03;53.52;100588.88;674855;29;23883;-68
2022/02/25 00:28:40;;;;;;;1015.17;954.67;;;;;;;7.02;53.43;100591.72;674164;29;44394;-68
2022/02/25 00:29:03;;;;;;;1053.18;989.97;;;;;;;6.97;53.38;100594.06;674418;29;22499;-69
2022/02/25 00:29:24;;;;;;;1062.82;998.63;;;;;;;6.95;53.45;100594.22;673321;29;67504;-69
2022/02/25 00:29:46;;;;;;;1066.47;999.90;;;;;;;6.95;53.53;100599.56;674102;29;44400;-69
2022/02/25 00:30:11;;;;;;;1067.70;999.58;;;;;;;6.93;53.60;100592.66;673364;29;65889;-69
2022/02/25 00:30:32;;;;;;;1052.38;988.75;;;;;;;6.95;53.51;100602.25;673387;29;67476;-69
2022/02/25 00:30:53;;;;;;;1050.63;987.22;;;;;;;6.93;53.67;100604.28;674918;29;23468;-68
2022/02/25 00:31:15;;;;;;;1054.93;991.10;;;;;;;6.91;53.40;100606.28;675121;29;22403;-69
2022/02/25 00:31:36;;;;;;;1068.80;999.90;;;;;;;6.92;53.40;100607.13;673715;29;44412;-68
2022/02/25 00:31:57;;;;;;;1060.13;996.00;;;;;;;6.93;53.39;100609.63;675069;29;22402;-69
2022/02/25 00:32:18;;;;;;;1055.20;992.15;;;;;;;6.91;53.26;100617.03;674175;29;44419;-68
2022/02/25 00:32:40;;;;;;;1060.22;996.58;;;;;;;6.87;53.20;100612.94;674870;29;22216;-69
2022/02/25 00:33:02;;;;;;;1049.40;986.72;;;;;;;6.82;53.24;100610.72;674878;29;23442;-69
2022/02/25 00:33:23;;;;;;;1026.07;965.38;;;;;;;6.78;53.54;100617.41;674876;29;20010;-68
2022/02/25 00:33:44;;;;;;;1046.97;984.08;;;;;;;6.79;53.47;100615.56;674658;29;22405;-68
2022/02/25 00:34:05;;;;;;;1052.10;988.47;;;;;;;6.79;53.53;100621.78;674726;29;21346;-69
2022/02/25 00:34:26;;;;;;;1037.20;975.10;;;;;;;6.76;53.49;100611.34;675134;29;23403;-69
2022/02/25 00:34:48;;;;;;;1043.60;981.13;;;;;;;6.75;53.75;100619.56;675050;29;22441;-69
2022/02/25 00:35:09;;;;;;;1054.53;990.70;;;;;;;6.79;53.47;100604.84;674251;29;43836;-69
2022/02/25 00:35:30;;;;;;;1041.50;979.17;;;;;;;6.77;53.40;100620.22;674792;29;46403;-69
2022/02/25 00:35:52;;;;;;;1051.20;988.15;;;;;;;6.77;53.23;100612.19;675189;29;21634;-69
2022/02/25 00:36:14;;;;;;;1053.28;989.58;;;;;;;6.76;53.29;100615.88;672132;29;46769;-69
2022/02/25 00:36:35;;;;;;;1038.93;976.80;;;;;;;6.73;53.45;100619.72;673035;29;22395;-69
2022/02/25 00:36:56;;;;;;;1038.55;976.53;;;;;;;6.72;53.43;100627.91;673831;29;22233;-69
2022/02/25 00:37:17;;;;;;;1044.72;981.92;;;;;;;6.71;53.54;100627.09;673890;29;22389;-69
2022/02/25 00:37:39;;;;;;;1059.75;995.75;;;;;;;6.71;53.51;100618.16;673904;29;22363;-68
2022/02/25 00:38:00;;;;;;;1069.97;999.90;;;;;;;6.68;53.63;100628.22;672739;29;45247;-69
2022/02/25 00:38:21;;;;;;;1031.85;970.22;;;;;;;6.68;53.86;100630.91;673259;29;23778;-69
2022/02/25 00:38:42;;;;;;;1013.47;953.38;;;;;;;6.70;53.65;100630.75;673708;29;22473;-68
2022/02/25 00:39:04;;;;;;;1058.88;995.25;;;;;;;6.73;53.52;100629.63;673553;29;21250;-68
2022/02/25 00:39:25;;;;;;;1061.85;998.30;;;;;;;6.73;53.65;100626.94;672152;29;69782;-69
2022/02/25 00:39:47;;;;;;;1050.18;987.03;;;;;;;6.72;53.56;100623.38;674625;29;1815;-69
2022/02/25 00:40:09;;;;;;;1047.95;985.05;;;;;;;6.75;53.52;100625.75;674121;29;23421;-69
2022/02/25 00:40:31;;;;;;;1025.60;964.80;;;;;;;6.74;53.33;100637.50;673532;29;69248;-69
2022/02/25 00:40:52;;;;;;;1025.40;964.67;;;;;;;6.76;53.31;100634.69;674412;29;46016;-68
2022/02/25 00:41:14;;;;;;;1048.97;986.42;;;;;;;6.79;53.55;100632.50;674718;29;23434;-68
2022/02/25 00:41:35;;;;;;;1054.68;991.45;;;;;;;6.80;53.24;100627.97;674581;29;23699;-68
2022/02/25 00:41:56;;;;;;;1034.80;973.30;;;;;;;6.80;53.32;100630.66;675647;29;21354;-68
2022/02/25 00:42:18;;;;;;;1041.75;979.92;;;;;;;6.80;53.04;100641.41;674680;29;22384;-68
2022/02/25 00:42:39;;;;;;;1059.35;996.08;;;;;;;6.77;53.16;100637.19;674715;29;46281;-68
2022/02/25 00:43:00;;;;;;;1059.72;996.13;;;;;;;6.77;53.23;100650.63;675229;29;22383;-68
2022/02/25 00:43:25;;;;;;;1048.88;986.15;;;;;;;6.81;53.04;100640.41;676476;29;782;-68
2022/02/25 00:43:46;;;;;;;1039.60;977.58;;;;;;;6.79;53.08;100637.88;672846;29;90469;-69
2022/02/25 00:44:09;;;;;;;960.63;904.08;;;;;;;6.77;53.09;100637.19;675373;29;22533;-69
2022/02/25 00:44:30;;;;;;;1018.15;958.10;;;;;;;6.76;53.31;100635.50;674740;29;45253;-69
2022/02/25 00:44:55;;;;;;;1039.05;977.45;;;;;;;6.75;53.24;100651.75;675466;29;22494;-69
2022/02/25 00:45:16;;;;;;;1019.30;959.10;;;;;;;6.78;53.03;100641.56;673031;29;90395;-69
2022/02/25 00:45:37;;;;;;;1027.15;966.58;;;;;;;6.81;53.15;100629.69;675267;29;23450;-68
2022/02/25 00:45:59;;;;;;;1024.07;963.75;;;;;;;6.81;53.06;100643.94;673508;29;19872;-68
2022/02/25 00:46:20;;;;;;;1040.28;978.47;;;;;;;6.80;53.03;100639.59;673475;29;4726;-68
2022/02/25 00:46:41;;;;;;;999.38;940.45;;;;;;;6.80;53.10;100641.41;673913;29;21199;-68
2022/02/25 00:47:03;;;;;;;1014.10;954.40;;;;;;;6.78;53.20;100641.56;673698;29;21556;-69
2022/02/25 00:47:25;;;;;;;1031.18;970.22;;;;;;;6.81;53.11;100630.50;673993;29;21530;-69
2022/02/25 00:47:48;;;;;;;848.65;800.00;;;;;;;6.81;53.08;100648.47;673648;29;46189;-69
2022/02/25 00:48:09;;;;;;;948.53;893.35;;;;;;;6.80;53.47;100650.31;673923;29;69414;-69
2022/02/25 00:48:30;;;;;;;981.78;924.42;;;;;;;6.80;53.23;100650.31;674630;29;47865;-69
2022/02/25 00:48:52;;;;;;;961.28;905.10;;;;;;;6.86;52.93;100654.22;674818;29;21188;-69
2022/02/25 00:49:13;;;;;;;971.67;914.88;;;;;;;6.88;52.45;100651.38;675111;29;44255;-69
2022/02/25 00:49:35;;;;;;;1049.88;987.50;;;;;;;6.84;52.41;100648.16;675553;29;22391;-68
2022/02/25 00:49:56;;;;;;;1061.65;998.33;;;;;;;6.79;52.51;100639.75;675216;29;22395;-68
2022/02/25 00:50:18;;;;;;;1068.90;999.90;;;;;;;6.75;52.98;100657.97;675417;29;23440;-69
2022/02/25 00:50:39;;;;;;;1070.07;999.90;;;;;;;6.76;52.94;100654.28;674481;29;46315;-68
2022/02/25 00:51:00;;;;;;;1062.32;998.92;;;;;;;6.79;52.93;100662.03;675143;29;21546;-68
2022/02/25 00:51:21;;;;;;;1063.18;999.58;;;;;;;6.82;52.66;100652.84;674418;29;22176;-69
2022/02/25 00:51:42;;;;;;;1053.32;990.70;;;;;;;6.84;52.83;100661.59;675571;29;23520;-68
2022/02/25 00:52:05;;;;;;;1036.82;975.58;;;;;;;6.81;52.56;100648.47;673679;29;23233;-68
2022/02/25 00:52:26;;;;;;;1020.47;960.58;;;;;;;6.81;52.50;100659.22;672242;29;69175;-68
2022/02/25 00:52:47;;;;;;;1033.35;972.50;;;;;;;6.77;52.59;100657.81;672869;29;44223;-68
2022/02/25 00:53:08;;;;;;;1057.88;994.90;;;;;;;6.77;52.75;100664.06;673551;29;22357;-69
2022/02/25 00:53:30;;;;;;;1051.90;989.38;;;;;;;6.79;52.80;100654.00;674643;29;1915;-69
2022/02/25 00:53:51;;;;;;;951.58;896.10;;;;;;;6.83;52.76;100655.38;673225;29;45246;-68
2022/02/25 00:54:13;;;;;;;1012.58;953.22;;;;;;;6.87;52.45;100682.75;675711;29;23486;-69
2022/02/25 00:54:34;;;;;;;1047.03;985.00;;;;;;;6.87;52.36;100657.75;674324;29;46452;-69
2022/02/25 00:54:56;;;;;;;983.08;925.50;;;;;;;6.84;52.28;100667.78;675303;29;21396;-68
2022/02/25 00:55:17;;;;;;;960.05;904.03;;;;;;;6.81;52.27;100659.22;671432;29;46232;-68
2022/02/25 00:55:39;;;;;;;990.13;931.97;;;;;;;6.77;52.44;100656.00;672749;29;22400;-69
2022/02/25 00:56:00;;;;;;;1003.22;944.33;;;;;;;6.74;52.66;100664.34;671901;29;22385;-69
2022/02/25 00:56:22;;;;;;;969.88;913.25;;;;;;;6.74;52.53;100676.91;671326;29;22398;-68
2022/02/25 00:56:43;;;;;;;952.85;897.30;;;;;;;6.76;52.58;100661.53;671442;29;45049;-69
2022/02/25 00:57:04;;;;;;;1011.22;951.63;;;;;;;6.72;52.48;100654.75;673548;29;23795;-69
2022/02/25 00:57:26;;;;;;;1064.03;999.85;;;;;;;6.68;52.53;100665.81;673509;29;23931;-69
2022/02/25 00:57:49;;;;;;;1055.75;992.95;;;;;;;6.66;52.64;100664.25;672912;29;45321;-69
2022/02/25 00:58:10;;;;;;;1035.53;974.13;;;;;;;6.63;52.76;100681.53;671950;29;69326;-68
2022/02/25 00:58:31;;;;;;;1063.50;999.78;;;;;;;6.62;53.04;100665.56;672724;29;23482;-68
2022/02/25 00:58:53;;;;;;;1050.82;988.40;;;;;;;6.62;52.97;100677.16;673954;29;1506;-68
2022/02/25 00:59:15;;;;;;;1003.67;944.83;;;;;;;6.61;53.08;100674.63;672569;29;44141;-68
2022/02/25 00:59:37;;;;;;;1003.38;944.60;;;;;;;6.59;53.30;100671.25;670966;29;69292;-69
2022/02/25 00:59:58;;;;;;;1038.22;976.90;;;;;;;6.60;53.28;100678.28;672724;29;21512;-70
2022/02/25 01:00:21;;;;;;;1036.20;975.10;;;;;;;6.67;53.30;100682.06;673113;29;22449;-68
2022/02/25 01:00:42;;;;;;;1025.80;965.53;;;;;;;6.67;53.41;100680.22;673895;29;69434;-68
2022/02/25 01:01:03;;;;;;;1046.93;984.75;;;;;;;6.66;53.29;100680.34;675596;29;22357;-69
2022/02/25 01:01:25;;;;;;;1061.88;998.33;;;;;;;6.74;53.03;100668.84;674769;29;22410;-69
2022/02/25 01:01:47;;;;;;;1060.13;996.85;;;;;;;6.70;52.84;100676.38;674971;29;40817;-69
2022/02/25 01:02:09;;;;;;;1062.22;998.83;;;;;;;6.64;52.89;100680.50;673846;29;69398;-68
2022/02/25 01:02:30;;;;;;;1055.00;992.45;;;;;;;6.62;52.81;100681.69;675351;29;22385;-69
2022/02/25 01:02:52;;;;;;;1055.53;992.75;;;;;;;6.60;53.09;100683.66;675102;29;23402;-68
2022/02/25 01:03:14;;;;;;;1057.90;994.80;;;;;;;6.60;53.10;100691.69;674647;29;46435;-68
2022/02/25 01:03:35;;;;;;;1047.80;985.80;;;;;;;6.58;53.33;100685.66;674509;29;46363;-68
2022/02/25 01:03:56;;;;;;;1060.50;997.35;;;;;;;6.63;52.93;100683.34;675281;29;21375;-68
2022/02/25 01:04:17;;;;;;;1059.43;996.42;;;;;;;6.67;52.77;100674.00;675406;29;23452;-68
2022/02/25 01:04:39;;;;;;;1045.13;983.45;;;;;;;6.64;52.66;100677.81;675405;29;22413;-68
2022/02/25 01:05:00;;;;;;;1045.45;983.70;;;;;;;6.61;52.74;100682.66;674586;29;43511;-68
2022/02/25 01:05:22;;;;;;;1051.47;989.15;;;;;;;6.56;52.83;100679.59;674757;29;44265;-68
2022/02/25 01:05:44;;;;;;;1055.97;993.22;;;;;;;6.52;52.94;100681.75;672749;29;21354;-68
2022/02/25 01:06:05;;;;;;;930.88;876.45;;;;;;;6.50;53.17;100691.78;671478;29;46297;-67
2022/02/25 01:06:27;;;;;;;947.90;892.63;;;;;;;6.49;53.32;100682.91;672279;29;4232;-68
2022/02/25 01:06:48;;;;;;;1047.88;985.88;;;;;;;6.53;53.26;100691.47;672677;29;22187;-68
2022/02/25 01:07:10;;;;;;;1040.53;979.15;;;;;;;6.51;53.20;100685.44;671950;29;45261;-68
2022/02/25 01:07:31;;;;;;;1046.43;984.60;;;;;;;6.48;53.54;100683.88;672688;29;45023;-68
2022/02/25 01:07:53;;;;;;;1049.38;987.30;;;;;;;6.47;53.39;100684.03;675578;29;21318;-68
2022/02/25 01:08:15;;;;;;;1034.05;973.15;;;;;;;6.45;53.55;100689.53;674564;29;22395;-68
2022/02/25 01:08:36;;;;;;;1022.33;962.35;;;;;;;6.46;53.57;100680.50;674435;29;45232;-68
2022/02/25 01:08:58;;;;;;;1018.97;959.08;;;;;;;6.47;53.50;100689.41;673459;29;22062;-68
2022/02/25 01:09:19;;;;;;;1014.05;954.55;;;;;;;6.47;53.51;100681.34;672590;29;46219;-68
2022/02/25 01:09:40;;;;;;;1019.90;959.95;;;;;;;6.45;53.56;100681.50;673102;29;13476;-68
2022/02/25 01:10:02;;;;;;;1039.32;977.72;;;;;;;6.43;53.71;100690.72;673487;29;22473;-68
2022/02/25 01:10:26;;;;;;;1039.22;977.92;;;;;;;6.43;53.76;100683.50;673598;29;14925;-68
2022/02/25 01:10:47;;;;;;;1029.05;968.53;;;;;;;6.45;53.64;100691.41;672796;29;45268;-68
2022/02/25 01:11:08;;;;;;;1008.60;949.45;;;;;;;6.43;53.75;100691.56;672348;29;21185;-68
2022/02/25 01:11:29;;;;;;;1015.53;955.83;;;;;;;6.44;53.73;100695.06;672350;29;22488;-68
2022/02/25 01:11:50;;;;;;;1032.50;971.55;;;;;;;6.43;53.56;100691.56;675036;29;21526;-68
2022/02/25 01:12:12;;;;;;;1034.78;973.65;;;;;;;6.41;53.71;100693.56;675019;29;23453;-69
2022/02/25 01:12:33;;;;;;;1029.32;968.75;;;;;;;6.42;53.61;100689.00;674222;29;45234;-68
2022/02/25 01:12:54;;;;;;;965.13;908.78;;;;;;;6.43;53.82;100683.50;675207;29;23481;-68
2022/02/25 01:13:15;;;;;;;967.67;911.20;;;;;;;6.44;53.67;100698.63;675397;29;21533;-68
2022/02/25 01:13:37;;;;;;;992.42;934.45;;;;;;;6.45;53.76;100686.88;675096;29;24526;-68
2022/02/25 01:13:59;;;;;;;1013.38;953.90;;;;;;;6.44;53.68;100693.25;674355;29;45319;-68
2022/02/25 01:14:21;;;;;;;1039.90;978.42;;;;;;;6.44;53.66;100695.06;674583;29;44347;-68
2022/02/25 01:14:43;;;;;;;1030.93;970.22;;;;;;;6.42;53.76;100699.75;674408;29;45309;-68
2022/02/25 01:15:05;;;;;;;1026.45;965.90;;;;;;;6.42;53.64;100684.47;674614;29;43882;-68
2022/02/25 01:15:27;;;;;;;1019.13;959.20;;;;;;;6.43;53.65;100685.34;674319;29;43582;-68
2022/02/25 01:15:48;;;;;;;1033.28;972.20;;;;;;;6.43;53.70;100699.59;674653;29;45094;-68
2022/02/25 01:16:10;;;;;;;962.50;906.10;;;;;;;6.42;53.69;100697.91;674854;29;21532;-68
2022/02/25 01:16:31;;;;;;;808.35;762.15;;;;;;;6.41;53.58;100692.69;670647;29;45259;-68
2022/02/25 01:16:52;;;;;;;785.65;741.05;;;;;;;6.43;53.70;100704.13;672495;29;22381;-68
2022/02/25 01:17:14;;;;;;;760.92;718.35;;;;;;;6.41;53.78;100698.91;673275;29;1593;-68
2022/02/25 01:17:35;;;;;;;908.17;855.75;;;;;;;6.39;53.71;100698.19;671490;29;44343;-69
2022/02/25 01:17:56;;;;;;;1025.20;964.88;;;;;;;6.38;53.69;100699.22;672416;29;23466;-68
2022/02/25 01:18:17;;;;;;;1038.85;977.60;;;;;;;6.36;53.77;100703.88;673190;29;21175;-68
2022/02/25 01:18:39;;;;;;;943.85;889.03;;;;;;;6.36;53.76;100698.50;675049;29;22233;-68
2022/02/25 01:19:00;;;;;;;1011.60;952.35;;;;;;;6.36;53.99;100695.81;671123;29;44158;-69
2022/02/25 01:19:21;;;;;;;1035.30;974.22;;;;;;;6.37;53.92;100702.03;672667;29;23454;-68
2022/02/25 01:19:42;;;;;;;1051.25;988.85;;;;;;;6.38;53.77;100698.34;672148;29;22529;-68
2022/02/25 01:20:06;;;;;;;1042.55;980.90;;;;;;;6.36;53.79;100695.81;673227;29;1273;-69
2022/02/25 01:20:27;;;;;;;1043.90;982.10;;;;;;;6.36;54.11;100694.97;670381;29;92063;-68
2022/02/25 01:20:48;;;;;;;1041.97;980.33;;;;;;;6.34;54.14;100703.19;672904;29;22395;-68
2022/02/25 01:21:09;;;;;;;1061.63;998.22;;;;;;;6.38;54.09;100701.03;675575;29;22394;-68
2022/02/25 01:21:30;;;;;;;1068.55;999.90;;;;;;;6.40;53.83;100704.44;674501;29;21521;-68
2022/02/25 01:21:53;;;;;;;1058.32;995.38;;;;;;;6.37;54.00;100705.56;675024;29;23353;-68
2022/02/25 01:22:15;;;;;;;1052.55;990.10;;;;;;;6.38;53.93;100711.75;673003;29;92272;-68
2022/02/25 01:22:36;;;;;;;1059.57;996.47;;;;;;;6.39;53.85;100702.72;674970;29;23305;-68
2022/02/25 01:22:57;;;;;;;1030.38;969.60;;;;;;;6.42;53.90;100697.06;675214;29;23414;-69
2022/02/25 01:23:19;;;;;;;1017.92;958.10;;;;;;;6.44;53.67;100712.03;674949;29;23461;-68
2022/02/25 01:23:40;;;;;;;1043.78;981.92;;;;;;;6.45;53.62;100696.75;674380;29;46388;-68
2022/02/25 01:24:01;;;;;;;928.83;874.85;;;;;;;6.44;53.86;100713.84;674700;29;23472;-68
2022/02/25 01:24:23;;;;;;;1013.90;954.38;;;;;;;6.43;53.83;100714.84;674244;29;46193;-68
2022/02/25 01:24:44;;;;;;;988.70;930.85;;;;;;;6.41;53.79;100701.59;674880;29;21529;-69
2022/02/25 01:25:06;;;;;;;713.83;674.25;;;;;;;6.40;53.98;100705.25;674362;29;46288;-68
2022/02/25 01:25:27;;;;;;;708.60;669.28;;;;;;;6.39;54.02;100708.09;675118;29;22385;-68
2022/02/25 01:25:48;;;;;;;673.23;636.40;;;;;;;6.42;54.10;100718.53;675160;29;22308;-68
2022/02/25 01:26:10;;;;;;;667.25;630.78;;;;;;;6.49;53.74;100712.41;673759;29;44335;-68
2022/02/25 01:26:32;;;;;;;712.05;672.60;;;;;;;6.49;53.49;100707.03;674033;29;21485;-68
2022/02/25 01:26:53;;;;;;;826.70;779.40;;;;;;;6.50;53.41;100715.94;673424;29;45237;-68
2022/02/25 01:27:14;;;;;;;927.28;873.35;;;;;;;6.52;53.38;100719.31;674667;29;21531;-69
2022/02/25 01:27:36;;;;;;;976.58;919.63;;;;;;;6.52;53.26;100705.91;674864;29;23337;-68
2022/02/25 01:27:57;;;;;;;1017.88;958.03;;;;;;;6.49;53.41;100706.22;673842;29;44396;-68
2022/02/25 01:28:18;;;;;;;1023.80;963.58;;;;;;;6.47;53.58;100714.41;675306;29;22392;-68
2022/02/25 01:28:39;;;;;;;1024.47;964.10;;;;;;;6.46;53.55;100715.38;674176;29;23475;-68
2022/02/25 01:29:02;;;;;;;1054.97;991.72;;;;;;;6.43;53.57;100707.66;675287;29;22329;-68
2022/02/25 01:29:24;;;;;;;1068.93;999.90;;;;;;;6.42;53.81;100718.53;673900;29;69262;-68
2022/02/25 01:29:45;;;;;;;1067.43;999.90;;;;;;;6.40;53.90;100721.34;674343;29;46312;-68
2022/02/25 01:30:10;;;;;;;1055.22;992.00;;;;;;;6.41;54.00;100714.16;674979;29;23687;-68
2022/02/25 01:30:31;;;;;;;1061.22;997.72;;;;;;;6.41;54.07;100719.50;671903;29;115110;-68
2022/02/25 01:30:53;;;;;;;1069.63;999.90;;;;;;;6.40;53.94;100716.00;675300;29;21542;-68
2022/02/25 01:31:14;;;;;;;1080.30;999.90;;;;;;;6.39;53.97;100708.09;671844;29;45242;-68
2022/02/25 01:31:37;;;;;;;1072.68;999.90;;;;;;;6.39;53.94;100713.47;671079;29;47368;-68
2022/02/25 01:31:58;;;;;;;1078.97;999.90;;;;;;;6.37;54.05;100718.97;671496;29;45058;-68
2022/02/25 01:32:19;;;;;;;1078.00;999.90;;;;;;;6.39;53.96;100716.97;672470;29;21508;-68
2022/02/25 01:32:40;;;;;;;1048.22;985.70;;;;;;;6.43;54.10;100712.19;672496;29;22390;-68
2022/02/25 01:33:02;;;;;;;1042.22;980.25;;;;;;;6.43;54.03;100715.69;673072;29;21534;-68
2022/02/25 01:33:23;;;;;;;1055.85;992.38;;;;;;;6.42;53.87;100724.72;673262;29;69493;-68
2022/02/25 01:33:44;;;;;;;1042.90;980.50;;;;;;;6.41;53.77;100727.56;675276;29;21436;-68
2022/02/25 01:34:05;;;;;;;1075.85;999.90;;;;;;;6.43;53.97;100714.84;674860;29;46343;-68
2022/02/25 01:34:26;;;;;;;1075.20;999.90;;;;;;;6.43;53.87;100717.53;675418;29;23418;-68
2022/02/25 01:34:50;;;;;;;1065.85;999.90;;;;;;;6.40;53.68;100718.69;675271;29;22408;-68
2022/02/25 01:35:11;;;;;;;1069.80;999.90;;;;;;;6.43;53.56;100717.53;673787;29;67528;-68
2022/02/25 01:35:35;;;;;;;1067.20;999.90;;;;;;;6.40;53.78;100731.25;675080;29;22357;-68
2022/02/25 01:35:56;;;;;;;1068.72;999.90;;;;;;;6.39;53.55;100722.34;672851;29;92272;-68
2022/02/25 01:36:18;;;;;;;1072.80;999.90;;;;;;;6.35;53.66;100709.38;673653;29;22413;-68
2022/02/25 01:36:39;;;;;;;1072.82;999.90;;;;;;;6.29;53.67;100722.41;674440;29;44390;-68
2022/02/25 01:37:00;;;;;;;1072.75;999.90;;;;;;;6.28;53.84;100731.44;675132;29;23464;-69
2022/02/25 01:37:22;;;;;;;1074.75;999.90;;;;;;;6.27;53.89;100718.19;675512;29;23439;-68